sensor_id;sensor_type;location;lat;lon;timestamp;P1;durP1;ratioP1;P2;durP2;ratioP2
60502;SDS011;51448;51.660;5.824;2023-03-31T00:01:11;10.73;;;2.38;;
60502;SDS011;51448;51.660;5.824;2023-03-31T00:03:38;13.20;;;2.38;;
60502;SDS011;51448;51.660;5.824;2023-03-31T00:08:45;9.23;;;2.42;;
60502;SDS011;51448;51.660;5.824;2023-03-31T00:11:19;8.73;;;2.25;;
60502;SDS011;51448;51.660;5.824;2023-03-31T00:13:48;8.35;;;2.38;;
60502;SDS011;51448;51.660;5.824;2023-03-31T00:16:15;9.70;;;2.22;;
60502;SDS011;51448;51.660;5.824;2023-03-31T00:18:43;11.32;;;2.30;;
60502;SDS011;51448;51.660;5.824;2023-03-31T00:21:18;7.45;;;2.40;;
60502;SDS011;51448;51.660;5.824;2023-03-31T00:23:56;10.10;;;2.20;;
60502;SDS011;51448;51.660;5.824;2023-03-31T00:26:27;9.63;;;2.63;;
60502;SDS011;51448;51.660;5.824;2023-03-31T00:28:56;9.73;;;2.75;;
60502;SDS011;51448;51.660;5.824;2023-03-31T00:31:25;11.82;;;2.90;;
60502;SDS011;51448;51.660;5.824;2023-03-31T00:33:54;11.32;;;3.63;;
60502;SDS011;51448;51.660;5.824;2023-03-31T00:36:22;10.25;;;2.80;;
60502;SDS011;51448;51.660;5.824;2023-03-31T00:38:54;9.38;;;3.25;;
60502;SDS011;51448;51.660;5.824;2023-03-31T00:41:28;9.88;;;2.95;;
60502;SDS011;51448;51.660;5.824;2023-03-31T00:47:15;12.68;;;2.75;;
60502;SDS011;51448;51.660;5.824;2023-03-31T00:49:39;12.25;;;3.00;;
60502;SDS011;51448;51.660;5.824;2023-03-31T00:52:23;11.98;;;2.78;;
60502;SDS011;51448;51.660;5.824;2023-03-31T00:55:04;10.30;;;2.47;;
60502;SDS011;51448;51.660;5.824;2023-03-31T00:57:40;11.25;;;2.25;;
60502;SDS011;51448;51.660;5.824;2023-03-31T01:00:13;9.20;;;2.35;;
60502;SDS011;51448;51.660;5.824;2023-03-31T01:02:42;9.88;;;2.30;;
60502;SDS011;51448;51.660;5.824;2023-03-31T01:05:19;9.77;;;2.40;;
60502;SDS011;51448;51.660;5.824;2023-03-31T01:08:03;8.13;;;2.28;;
60502;SDS011;51448;51.660;5.824;2023-03-31T01:10:32;12.77;;;2.65;;
60502;SDS011;51448;51.660;5.824;2023-03-31T01:13:08;9.52;;;2.40;;
60502;SDS011;51448;51.660;5.824;2023-03-31T01:15:39;12.65;;;2.75;;
60502;SDS011;51448;51.660;5.824;2023-03-31T01:18:08;10.88;;;2.53;;
60502;SDS011;51448;51.660;5.824;2023-03-31T01:24:27;10.57;;;2.40;;
60502;SDS011;51448;51.660;5.824;2023-03-31T01:30:31;11.00;;;2.53;;
60502;SDS011;51448;51.660;5.824;2023-03-31T01:44:31;13.45;;;2.50;;
60502;SDS011;51448;51.660;5.824;2023-03-31T01:47:13;9.75;;;2.00;;
60502;SDS011;51448;51.660;5.824;2023-03-31T01:50:03;11.02;;;2.33;;
60502;SDS011;51448;51.660;5.824;2023-03-31T01:52:40;11.80;;;2.28;;
60502;SDS011;51448;51.660;5.824;2023-03-31T01:58:15;10.10;;;2.55;;
60502;SDS011;51448;51.660;5.824;2023-03-31T02:01:04;9.15;;;1.83;;
60502;SDS011;51448;51.660;5.824;2023-03-31T02:03:44;12.82;;;2.42;;
60502;SDS011;51448;51.660;5.824;2023-03-31T02:06:22;12.55;;;2.28;;
60502;SDS011;51448;51.660;5.824;2023-03-31T02:08:59;11.13;;;2.72;;
60502;SDS011;51448;51.660;5.824;2023-03-31T02:11:35;10.95;;;2.70;;
60502;SDS011;51448;51.660;5.824;2023-03-31T02:14:10;11.85;;;2.63;;
60502;SDS011;51448;51.660;5.824;2023-03-31T02:16:49;12.35;;;2.78;;
60502;SDS011;51448;51.660;5.824;2023-03-31T02:20:01;12.30;;;2.85;;
60502;SDS011;51448;51.660;5.824;2023-03-31T02:22:55;15.85;;;2.47;;
60502;SDS011;51448;51.660;5.824;2023-03-31T02:25:26;14.02;;;3.08;;
60502;SDS011;51448;51.660;5.824;2023-03-31T02:28:05;17.17;;;2.53;;
60502;SDS011;51448;51.660;5.824;2023-03-31T02:33:48;12.77;;;3.05;;
60502;SDS011;51448;51.660;5.824;2023-03-31T02:36:16;15.95;;;2.78;;
60502;SDS011;51448;51.660;5.824;2023-03-31T02:38:46;17.20;;;3.08;;
60502;SDS011;51448;51.660;5.824;2023-03-31T02:41:21;17.33;;;3.05;;
60502;SDS011;51448;51.660;5.824;2023-03-31T02:43:49;17.52;;;3.55;;
60502;SDS011;51448;51.660;5.824;2023-03-31T02:46:16;15.45;;;3.25;;
60502;SDS011;51448;51.660;5.824;2023-03-31T02:48:45;12.85;;;3.03;;
60502;SDS011;51448;51.660;5.824;2023-03-31T02:57:32;15.55;;;3.13;;
60502;SDS011;51448;51.660;5.824;2023-03-31T03:06:17;13.82;;;3.08;;
60502;SDS011;51448;51.660;5.824;2023-03-31T03:09:22;17.13;;;3.70;;
60502;SDS011;51448;51.660;5.824;2023-03-31T03:14:47;15.70;;;2.80;;
60502;SDS011;51448;51.660;5.824;2023-03-31T03:17:26;14.85;;;3.10;;
60502;SDS011;51448;51.660;5.824;2023-03-31T03:20:02;14.40;;;3.13;;
60502;SDS011;51448;51.660;5.824;2023-03-31T03:22:37;17.80;;;3.25;;
60502;SDS011;51448;51.660;5.824;2023-03-31T03:25:07;16.27;;;3.35;;
60502;SDS011;51448;51.660;5.824;2023-03-31T03:27:39;14.95;;;3.40;;
60502;SDS011;51448;51.660;5.824;2023-03-31T03:30:07;20.30;;;3.50;;
60502;SDS011;51448;51.660;5.824;2023-03-31T03:32:38;17.58;;;3.15;;
60502;SDS011;51448;51.660;5.824;2023-03-31T03:35:06;13.73;;;3.38;;
60502;SDS011;51448;51.660;5.824;2023-03-31T03:37:35;19.15;;;3.83;;
60502;SDS011;51448;51.660;5.824;2023-03-31T03:40:03;13.18;;;3.20;;
60502;SDS011;51448;51.660;5.824;2023-03-31T03:42:32;19.08;;;3.40;;
60502;SDS011;51448;51.660;5.824;2023-03-31T03:45:01;17.52;;;3.42;;
60502;SDS011;51448;51.660;5.824;2023-03-31T03:47:28;16.88;;;3.28;;
60502;SDS011;51448;51.660;5.824;2023-03-31T03:49:56;24.98;;;4.15;;
60502;SDS011;51448;51.660;5.824;2023-03-31T03:52:24;16.85;;;3.42;;
60502;SDS011;51448;51.660;5.824;2023-03-31T03:54:51;15.57;;;2.95;;
60502;SDS011;51448;51.660;5.824;2023-03-31T03:57:19;16.52;;;3.22;;
60502;SDS011;51448;51.660;5.824;2023-03-31T03:59:47;16.38;;;3.28;;
60502;SDS011;51448;51.660;5.824;2023-03-31T04:02:14;19.20;;;3.83;;
60502;SDS011;51448;51.660;5.824;2023-03-31T04:04:42;13.70;;;2.80;;
60502;SDS011;51448;51.660;5.824;2023-03-31T04:07:09;12.93;;;2.97;;
60502;SDS011;51448;51.660;5.824;2023-03-31T04:09:37;14.65;;;2.88;;
60502;SDS011;51448;51.660;5.824;2023-03-31T04:12:04;14.82;;;3.17;;
60502;SDS011;51448;51.660;5.824;2023-03-31T04:14:32;17.15;;;2.85;;
60502;SDS011;51448;51.660;5.824;2023-03-31T04:16:59;15.93;;;3.08;;
60502;SDS011;51448;51.660;5.824;2023-03-31T04:19:29;16.20;;;3.28;;
60502;SDS011;51448;51.660;5.824;2023-03-31T04:21:57;15.82;;;3.33;;
60502;SDS011;51448;51.660;5.824;2023-03-31T04:24:29;13.38;;;2.80;;
60502;SDS011;51448;51.660;5.824;2023-03-31T04:26:59;17.50;;;3.08;;
60502;SDS011;51448;51.660;5.824;2023-03-31T04:29:29;12.65;;;2.72;;
60502;SDS011;51448;51.660;5.824;2023-03-31T04:32:00;15.85;;;2.85;;
60502;SDS011;51448;51.660;5.824;2023-03-31T04:34:27;12.27;;;2.83;;
60502;SDS011;51448;51.660;5.824;2023-03-31T04:37:01;12.88;;;3.38;;
60502;SDS011;51448;51.660;5.824;2023-03-31T04:39:30;11.95;;;3.15;;
60502;SDS011;51448;51.660;5.824;2023-03-31T04:41:58;13.88;;;2.95;;
60502;SDS011;51448;51.660;5.824;2023-03-31T04:44:27;14.82;;;3.20;;
60502;SDS011;51448;51.660;5.824;2023-03-31T04:46:55;14.48;;;2.90;;
60502;SDS011;51448;51.660;5.824;2023-03-31T04:49:24;13.77;;;3.10;;
60502;SDS011;51448;51.660;5.824;2023-03-31T04:51:52;10.90;;;2.85;;
60502;SDS011;51448;51.660;5.824;2023-03-31T04:54:19;14.95;;;2.72;;
60502;SDS011;51448;51.660;5.824;2023-03-31T04:56:47;13.60;;;2.60;;
60502;SDS011;51448;51.660;5.824;2023-03-31T04:59:14;13.82;;;3.05;;
60502;SDS011;51448;51.660;5.824;2023-03-31T05:01:42;16.67;;;3.00;;
60502;SDS011;51448;51.660;5.824;2023-03-31T05:04:11;14.43;;;2.50;;
60502;SDS011;51448;51.660;5.824;2023-03-31T05:06:41;11.88;;;2.50;;
60502;SDS011;51448;51.660;5.824;2023-03-31T05:09:08;12.23;;;2.45;;
60502;SDS011;51448;51.660;5.824;2023-03-31T05:11:36;12.30;;;3.03;;
60502;SDS011;51448;51.660;5.824;2023-03-31T05:14:05;17.02;;;2.75;;
60502;SDS011;51448;51.660;5.824;2023-03-31T05:16:33;11.88;;;2.53;;
60502;SDS011;51448;51.660;5.824;2023-03-31T05:19:03;10.90;;;2.35;;
60502;SDS011;51448;51.660;5.824;2023-03-31T05:21:33;11.80;;;2.63;;
60502;SDS011;51448;51.660;5.824;2023-03-31T05:24:01;14.23;;;2.70;;
60502;SDS011;51448;51.660;5.824;2023-03-31T05:26:32;11.82;;;2.42;;
60502;SDS011;51448;51.660;5.824;2023-03-31T05:29:00;13.23;;;2.83;;
60502;SDS011;51448;51.660;5.824;2023-03-31T05:31:27;12.35;;;2.38;;
60502;SDS011;51448;51.660;5.824;2023-03-31T05:33:55;10.15;;;2.50;;
60502;SDS011;51448;51.660;5.824;2023-03-31T05:36:22;11.10;;;2.28;;
60502;SDS011;51448;51.660;5.824;2023-03-31T05:38:53;9.32;;;2.20;;
60502;SDS011;51448;51.660;5.824;2023-03-31T05:41:20;9.32;;;1.95;;
60502;SDS011;51448;51.660;5.824;2023-03-31T05:43:50;11.57;;;1.80;;
60502;SDS011;51448;51.660;5.824;2023-03-31T05:46:18;10.70;;;2.40;;
60502;SDS011;51448;51.660;5.824;2023-03-31T05:48:46;7.32;;;2.00;;
60502;SDS011;51448;51.660;5.824;2023-03-31T05:51:13;11.55;;;1.88;;
60502;SDS011;51448;51.660;5.824;2023-03-31T05:53:41;9.30;;;2.30;;
60502;SDS011;51448;51.660;5.824;2023-03-31T05:56:09;8.77;;;2.10;;
60502;SDS011;51448;51.660;5.824;2023-03-31T05:58:36;9.98;;;1.90;;
60502;SDS011;51448;51.660;5.824;2023-03-31T06:01:08;6.63;;;1.50;;
60502;SDS011;51448;51.660;5.824;2023-03-31T06:03:41;9.13;;;1.88;;
60502;SDS011;51448;51.660;5.824;2023-03-31T06:06:09;8.77;;;2.03;;
60502;SDS011;51448;51.660;5.824;2023-03-31T06:08:39;9.70;;;2.00;;
60502;SDS011;51448;51.660;5.824;2023-03-31T06:11:09;11.48;;;2.05;;
60502;SDS011;51448;51.660;5.824;2023-03-31T06:13:41;7.38;;;1.65;;
60502;SDS011;51448;51.660;5.824;2023-03-31T06:16:09;8.25;;;1.65;;
60502;SDS011;51448;51.660;5.824;2023-03-31T06:18:39;9.38;;;1.88;;
60502;SDS011;51448;51.660;5.824;2023-03-31T06:21:09;11.23;;;2.58;;
60502;SDS011;51448;51.660;5.824;2023-03-31T06:23:43;12.73;;;2.25;;
60502;SDS011;51448;51.660;5.824;2023-03-31T06:26:16;15.18;;;2.10;;
60502;SDS011;51448;51.660;5.824;2023-03-31T06:28:45;8.15;;;1.67;;
60502;SDS011;51448;51.660;5.824;2023-03-31T06:31:14;9.07;;;2.08;;
60502;SDS011;51448;51.660;5.824;2023-03-31T06:33:44;14.57;;;2.53;;
60502;SDS011;51448;51.660;5.824;2023-03-31T06:36:14;9.07;;;2.17;;
60502;SDS011;51448;51.660;5.824;2023-03-31T06:38:45;12.68;;;2.47;;
60502;SDS011;51448;51.660;5.824;2023-03-31T06:41:14;9.32;;;1.77;;
60502;SDS011;51448;51.660;5.824;2023-03-31T06:43:43;8.32;;;1.90;;
60502;SDS011;51448;51.660;5.824;2023-03-31T06:46:11;9.07;;;1.80;;
60502;SDS011;51448;51.660;5.824;2023-03-31T06:48:39;11.80;;;2.30;;
60502;SDS011;51448;51.660;5.824;2023-03-31T06:51:08;9.38;;;2.15;;
60502;SDS011;51448;51.660;5.824;2023-03-31T06:53:36;8.95;;;1.90;;
60502;SDS011;51448;51.660;5.824;2023-03-31T06:56:05;8.60;;;2.25;;
60502;SDS011;51448;51.660;5.824;2023-03-31T06:58:33;9.57;;;1.77;;
60502;SDS011;51448;51.660;5.824;2023-03-31T07:01:03;10.88;;;2.42;;
60502;SDS011;51448;51.660;5.824;2023-03-31T07:03:35;8.75;;;1.90;;
60502;SDS011;51448;51.660;5.824;2023-03-31T07:06:03;10.25;;;2.15;;
60502;SDS011;51448;51.660;5.824;2023-03-31T07:08:31;11.80;;;2.75;;
60502;SDS011;51448;51.660;5.824;2023-03-31T07:10:59;10.35;;;2.33;;
60502;SDS011;51448;51.660;5.824;2023-03-31T07:13:28;13.55;;;2.95;;
60502;SDS011;51448;51.660;5.824;2023-03-31T07:15:55;11.10;;;2.53;;
60502;SDS011;51448;51.660;5.824;2023-03-31T07:18:23;9.77;;;2.42;;
60502;SDS011;51448;51.660;5.824;2023-03-31T07:21:01;10.20;;;2.17;;
60502;SDS011;51448;51.660;5.824;2023-03-31T07:23:33;12.48;;;2.38;;
60502;SDS011;51448;51.660;5.824;2023-03-31T07:26:01;12.60;;;3.03;;
60502;SDS011;51448;51.660;5.824;2023-03-31T07:28:29;12.38;;;2.83;;
60502;SDS011;51448;51.660;5.824;2023-03-31T07:30:57;14.13;;;3.45;;
60502;SDS011;51448;51.660;5.824;2023-03-31T07:33:25;13.32;;;2.70;;
60502;SDS011;51448;51.660;5.824;2023-03-31T07:35:53;11.35;;;2.60;;
60502;SDS011;51448;51.660;5.824;2023-03-31T07:38:38;10.52;;;3.00;;
60502;SDS011;51448;51.660;5.824;2023-03-31T07:41:14;12.23;;;3.00;;
60502;SDS011;51448;51.660;5.824;2023-03-31T07:43:47;10.07;;;2.40;;
60502;SDS011;51448;51.660;5.824;2023-03-31T07:46:16;14.93;;;3.17;;
60502;SDS011;51448;51.660;5.824;2023-03-31T07:48:48;12.35;;;2.55;;
60502;SDS011;51448;51.660;5.824;2023-03-31T07:51:18;12.13;;;2.78;;
60502;SDS011;51448;51.660;5.824;2023-03-31T07:53:49;13.10;;;2.88;;
60502;SDS011;51448;51.660;5.824;2023-03-31T07:56:19;10.88;;;2.72;;
60502;SDS011;51448;51.660;5.824;2023-03-31T07:58:50;14.35;;;3.00;;
60502;SDS011;51448;51.660;5.824;2023-03-31T08:01:22;10.02;;;2.90;;
60502;SDS011;51448;51.660;5.824;2023-03-31T08:03:52;17.45;;;3.72;;
60502;SDS011;51448;51.660;5.824;2023-03-31T08:06:22;13.77;;;3.08;;
60502;SDS011;51448;51.660;5.824;2023-03-31T08:08:51;11.27;;;2.70;;
60502;SDS011;51448;51.660;5.824;2023-03-31T08:11:19;13.82;;;2.58;;
60502;SDS011;51448;51.660;5.824;2023-03-31T08:13:47;9.65;;;1.73;;
60502;SDS011;51448;51.660;5.824;2023-03-31T08:16:15;9.73;;;1.70;;
60502;SDS011;51448;51.660;5.824;2023-03-31T08:18:43;9.57;;;2.15;;
60502;SDS011;51448;51.660;5.824;2023-03-31T08:21:10;7.63;;;1.73;;
60502;SDS011;51448;51.660;5.824;2023-03-31T08:23:38;11.43;;;2.15;;
60502;SDS011;51448;51.660;5.824;2023-03-31T08:26:10;8.70;;;2.20;;
60502;SDS011;51448;51.660;5.824;2023-03-31T08:28:45;8.65;;;2.30;;
60502;SDS011;51448;51.660;5.824;2023-03-31T08:31:15;10.93;;;3.05;;
60502;SDS011;51448;51.660;5.824;2023-03-31T08:33:45;9.82;;;2.65;;
60502;SDS011;51448;51.660;5.824;2023-03-31T08:36:13;11.32;;;2.88;;
60502;SDS011;51448;51.660;5.824;2023-03-31T08:38:41;12.40;;;2.30;;
60502;SDS011;51448;51.660;5.824;2023-03-31T08:43:50;11.45;;;2.67;;
60502;SDS011;51448;51.660;5.824;2023-03-31T08:46:22;16.45;;;2.80;;
60502;SDS011;51448;51.660;5.824;2023-03-31T08:48:56;12.65;;;3.25;;
60502;SDS011;51448;51.660;5.824;2023-03-31T08:51:31;13.73;;;2.80;;
60502;SDS011;51448;51.660;5.824;2023-03-31T08:54:11;13.85;;;2.72;;
60502;SDS011;51448;51.660;5.824;2023-03-31T08:56:47;15.82;;;3.30;;
60502;SDS011;51448;51.660;5.824;2023-03-31T09:02:09;14.20;;;2.93;;
60502;SDS011;51448;51.660;5.824;2023-03-31T09:08:36;12.93;;;3.10;;
60502;SDS011;51448;51.660;5.824;2023-03-31T09:16:59;14.32;;;3.97;;
60502;SDS011;51448;51.660;5.824;2023-03-31T09:19:48;13.65;;;3.20;;
60502;SDS011;51448;51.660;5.824;2023-03-31T09:22:26;16.42;;;3.30;;
60502;SDS011;51448;51.660;5.824;2023-03-31T09:27:45;16.55;;;3.58;;
60502;SDS011;51448;51.660;5.824;2023-03-31T09:30:17;15.38;;;3.53;;
60502;SDS011;51448;51.660;5.824;2023-03-31T09:32:57;18.52;;;4.75;;
60502;SDS011;51448;51.660;5.824;2023-03-31T09:35:40;15.90;;;3.58;;
60502;SDS011;51448;51.660;5.824;2023-03-31T09:38:12;16.02;;;3.53;;
60502;SDS011;51448;51.660;5.824;2023-03-31T09:40:42;16.85;;;3.65;;
60502;SDS011;51448;51.660;5.824;2023-03-31T09:43:26;13.90;;;3.03;;
60502;SDS011;51448;51.660;5.824;2023-03-31T09:45:56;16.08;;;3.33;;
60502;SDS011;51448;51.660;5.824;2023-03-31T09:48:36;11.77;;;3.13;;
60502;SDS011;51448;51.660;5.824;2023-03-31T09:51:07;18.38;;;3.40;;
60502;SDS011;51448;51.660;5.824;2023-03-31T09:56:55;15.50;;;3.10;;
60502;SDS011;51448;51.660;5.824;2023-03-31T09:59:29;18.42;;;3.15;;
60502;SDS011;51448;51.660;5.824;2023-03-31T10:02:04;17.55;;;3.72;;
60502;SDS011;51448;51.660;5.824;2023-03-31T10:04:54;15.00;;;3.38;;
60502;SDS011;51448;51.660;5.824;2023-03-31T10:07:22;13.88;;;3.17;;
60502;SDS011;51448;51.660;5.824;2023-03-31T10:09:53;15.32;;;3.65;;
60502;SDS011;51448;51.660;5.824;2023-03-31T10:12:23;12.23;;;2.78;;
60502;SDS011;51448;51.660;5.824;2023-03-31T10:17:48;15.60;;;3.00;;
60502;SDS011;51448;51.660;5.824;2023-03-31T10:20:29;15.07;;;2.95;;
60502;SDS011;51448;51.660;5.824;2023-03-31T10:23:17;12.75;;;2.72;;
60502;SDS011;51448;51.660;5.824;2023-03-31T10:25:54;15.38;;;2.80;;
60502;SDS011;51448;51.660;5.824;2023-03-31T10:28:22;15.18;;;3.08;;
60502;SDS011;51448;51.660;5.824;2023-03-31T10:30:52;13.55;;;2.75;;
60502;SDS011;51448;51.660;5.824;2023-03-31T10:33:24;13.98;;;2.97;;
60502;SDS011;51448;51.660;5.824;2023-03-31T10:35:56;14.95;;;3.28;;
60502;SDS011;51448;51.660;5.824;2023-03-31T10:38:30;12.63;;;2.72;;
60502;SDS011;51448;51.660;5.824;2023-03-31T10:41:24;12.32;;;3.10;;
60502;SDS011;51448;51.660;5.824;2023-03-31T10:43:57;12.98;;;2.70;;
60502;SDS011;51448;51.660;5.824;2023-03-31T10:46:38;10.65;;;2.30;;
60502;SDS011;51448;51.660;5.824;2023-03-31T10:49:23;11.47;;;2.40;;
60502;SDS011;51448;51.660;5.824;2023-03-31T10:51:54;12.93;;;2.60;;
60502;SDS011;51448;51.660;5.824;2023-03-31T10:54:25;9.43;;;2.17;;
60502;SDS011;51448;51.660;5.824;2023-03-31T10:56:53;10.50;;;2.30;;
60502;SDS011;51448;51.660;5.824;2023-03-31T11:02:33;10.65;;;2.40;;
60502;SDS011;51448;51.660;5.824;2023-03-31T11:08:39;10.60;;;1.95;;
60502;SDS011;51448;51.660;5.824;2023-03-31T11:14:32;12.32;;;1.88;;
60502;SDS011;51448;51.660;5.824;2023-03-31T11:26:10;13.18;;;3.00;;
60502;SDS011;51448;51.660;5.824;2023-03-31T11:35:05;9.93;;;2.25;;
60502;SDS011;51448;51.660;5.824;2023-03-31T11:41:40;13.95;;;2.50;;
60502;SDS011;51448;51.660;5.824;2023-03-31T11:44:18;12.40;;;2.90;;
60502;SDS011;51448;51.660;5.824;2023-03-31T11:49:31;14.50;;;3.17;;
60502;SDS011;51448;51.660;5.824;2023-03-31T11:52:36;11.60;;;2.75;;
60502;SDS011;51448;51.660;5.824;2023-03-31T11:57:49;11.65;;;2.72;;
60502;SDS011;51448;51.660;5.824;2023-03-31T12:00:23;15.98;;;2.75;;
60502;SDS011;51448;51.660;5.824;2023-03-31T12:03:05;11.73;;;2.90;;
60502;SDS011;51448;51.660;5.824;2023-03-31T12:05:49;11.15;;;2.40;;
60502;SDS011;51448;51.660;5.824;2023-03-31T12:08:36;14.35;;;3.20;;
60502;SDS011;51448;51.660;5.824;2023-03-31T12:19:45;12.38;;;2.92;;
60502;SDS011;51448;51.660;5.824;2023-03-31T12:22:25;15.43;;;2.97;;
60502;SDS011;51448;51.660;5.824;2023-03-31T12:24:57;12.55;;;2.75;;
60502;SDS011;51448;51.660;5.824;2023-03-31T12:33:02;14.48;;;2.55;;
60502;SDS011;51448;51.660;5.824;2023-03-31T12:39:14;12.50;;;2.53;;
60502;SDS011;51448;51.660;5.824;2023-03-31T12:42:08;11.18;;;2.25;;
60502;SDS011;51448;51.660;5.824;2023-03-31T12:45:29;11.40;;;2.58;;
60502;SDS011;51448;51.660;5.824;2023-03-31T12:51:21;9.63;;;2.15;;
60502;SDS011;51448;51.660;5.824;2023-03-31T12:54:28;10.85;;;1.90;;
60502;SDS011;51448;51.660;5.824;2023-03-31T12:57:22;9.73;;;2.10;;
60502;SDS011;51448;51.660;5.824;2023-03-31T13:02:39;11.48;;;2.17;;
60502;SDS011;51448;51.660;5.824;2023-03-31T13:08:03;8.50;;;2.45;;
60502;SDS011;51448;51.660;5.824;2023-03-31T13:10:51;10.00;;;1.83;;
60502;SDS011;51448;51.660;5.824;2023-03-31T13:13:25;11.63;;;2.40;;
60502;SDS011;51448;51.660;5.824;2023-03-31T13:15:54;12.25;;;2.00;;
60502;SDS011;51448;51.660;5.824;2023-03-31T13:18:24;9.02;;;1.92;;
60502;SDS011;51448;51.660;5.824;2023-03-31T13:20:58;11.13;;;1.88;;
60502;SDS011;51448;51.660;5.824;2023-03-31T13:23:33;11.40;;;2.20;;
60502;SDS011;51448;51.660;5.824;2023-03-31T13:26:03;10.32;;;2.10;;
60502;SDS011;51448;51.660;5.824;2023-03-31T13:31:11;12.48;;;3.00;;
60502;SDS011;51448;51.660;5.824;2023-03-31T13:33:55;10.15;;;1.80;;
60502;SDS011;51448;51.660;5.824;2023-03-31T13:36:42;9.88;;;2.13;;
60502;SDS011;51448;51.660;5.824;2023-03-31T13:45:49;8.50;;;1.48;;
60502;SDS011;51448;51.660;5.824;2023-03-31T13:48:57;8.07;;;1.70;;
60502;SDS011;51448;51.660;5.824;2023-03-31T13:51:44;8.13;;;1.50;;
60502;SDS011;51448;51.660;5.824;2023-03-31T13:54:31;6.75;;;1.27;;
60502;SDS011;51448;51.660;5.824;2023-03-31T14:01:17;6.88;;;1.50;;
60502;SDS011;51448;51.660;5.824;2023-03-31T14:07:14;7.13;;;1.55;;
60502;SDS011;51448;51.660;5.824;2023-03-31T14:09:48;8.70;;;1.60;;
60502;SDS011;51448;51.660;5.824;2023-03-31T14:15:04;7.07;;;1.30;;
60502;SDS011;51448;51.660;5.824;2023-03-31T14:17:34;7.38;;;1.70;;
60502;SDS011;51448;51.660;5.824;2023-03-31T14:23:07;7.55;;;1.52;;
60502;SDS011;51448;51.660;5.824;2023-03-31T14:26:38;9.57;;;1.75;;
60502;SDS011;51448;51.660;5.824;2023-03-31T14:38:05;7.25;;;1.65;;
60502;SDS011;51448;51.660;5.824;2023-03-31T14:40:56;8.60;;;1.70;;
60502;SDS011;51448;51.660;5.824;2023-03-31T14:46:00;4.93;;;1.30;;
60502;SDS011;51448;51.660;5.824;2023-03-31T14:48:33;5.57;;;1.50;;
60502;SDS011;51448;51.660;5.824;2023-03-31T14:51:13;7.38;;;1.55;;
60502;SDS011;51448;51.660;5.824;2023-03-31T14:53:44;6.07;;;1.27;;
60502;SDS011;51448;51.660;5.824;2023-03-31T14:56:15;7.82;;;1.40;;
60502;SDS011;51448;51.660;5.824;2023-03-31T15:02:04;7.68;;;1.40;;
60502;SDS011;51448;51.660;5.824;2023-03-31T15:04:39;5.97;;;1.05;;
60502;SDS011;51448;51.660;5.824;2023-03-31T15:07:11;6.68;;;1.30;;
60502;SDS011;51448;51.660;5.824;2023-03-31T15:09:39;5.75;;;1.20;;
60502;SDS011;51448;51.660;5.824;2023-03-31T15:12:16;4.50;;;0.75;;
60502;SDS011;51448;51.660;5.824;2023-03-31T15:14:51;6.63;;;1.40;;
60502;SDS011;51448;51.660;5.824;2023-03-31T15:17:27;4.85;;;1.00;;
60502;SDS011;51448;51.660;5.824;2023-03-31T15:20:00;4.40;;;1.02;;
60502;SDS011;51448;51.660;5.824;2023-03-31T15:22:46;6.03;;;1.00;;
60502;SDS011;51448;51.660;5.824;2023-03-31T15:25:14;5.68;;;0.80;;
60502;SDS011;51448;51.660;5.824;2023-03-31T15:27:46;3.97;;;0.95;;
60502;SDS011;51448;51.660;5.824;2023-03-31T15:30:30;2.10;;;0.50;;
60502;SDS011;51448;51.660;5.824;2023-03-31T15:33:00;2.75;;;0.50;;
60502;SDS011;51448;51.660;5.824;2023-03-31T15:35:44;3.85;;;0.60;;
60502;SDS011;51448;51.660;5.824;2023-03-31T15:38:13;2.60;;;0.43;;
60502;SDS011;51448;51.660;5.824;2023-03-31T15:43:27;3.53;;;0.60;;
60502;SDS011;51448;51.660;5.824;2023-03-31T15:46:15;3.28;;;0.50;;
60502;SDS011;51448;51.660;5.824;2023-03-31T15:48:54;2.40;;;0.50;;
60502;SDS011;51448;51.660;5.824;2023-03-31T15:51:29;1.90;;;0.43;;
60502;SDS011;51448;51.660;5.824;2023-03-31T15:54:02;3.25;;;0.60;;
60502;SDS011;51448;51.660;5.824;2023-03-31T15:56:59;2.53;;;0.50;;
60502;SDS011;51448;51.660;5.824;2023-03-31T15:59:31;2.97;;;0.50;;
60502;SDS011;51448;51.660;5.824;2023-03-31T16:02:43;2.50;;;0.73;;
60502;SDS011;51448;51.660;5.824;2023-03-31T16:08:23;3.40;;;0.60;;
60502;SDS011;51448;51.660;5.824;2023-03-31T16:10:59;3.42;;;0.57;;
60502;SDS011;51448;51.660;5.824;2023-03-31T16:13:40;2.85;;;0.50;;
60502;SDS011;51448;51.660;5.824;2023-03-31T16:16:16;3.10;;;0.77;;
60502;SDS011;51448;51.660;5.824;2023-03-31T16:18:50;4.03;;;0.77;;
60502;SDS011;51448;51.660;5.824;2023-03-31T16:21:27;2.72;;;0.50;;
60502;SDS011;51448;51.660;5.824;2023-03-31T16:24:04;4.10;;;0.68;;
60502;SDS011;51448;51.660;5.824;2023-03-31T16:26:33;3.08;;;0.73;;
60502;SDS011;51448;51.660;5.824;2023-03-31T16:29:03;3.83;;;0.70;;
60502;SDS011;51448;51.660;5.824;2023-03-31T16:31:38;3.70;;;0.70;;
60502;SDS011;51448;51.660;5.824;2023-03-31T16:34:07;3.17;;;0.77;;
60502;SDS011;51448;51.660;5.824;2023-03-31T16:36:37;3.85;;;0.60;;
60502;SDS011;51448;51.660;5.824;2023-03-31T16:39:05;5.72;;;0.90;;
60502;SDS011;51448;51.660;5.824;2023-03-31T16:41:34;4.05;;;0.70;;
60502;SDS011;51448;51.660;5.824;2023-03-31T16:44:04;4.43;;;0.70;;
60502;SDS011;51448;51.660;5.824;2023-03-31T16:46:32;5.25;;;1.10;;
60502;SDS011;51448;51.660;5.824;2023-03-31T16:49:00;5.32;;;1.08;;
60502;SDS011;51448;51.660;5.824;2023-03-31T16:51:28;5.38;;;0.98;;
60502;SDS011;51448;51.660;5.824;2023-03-31T16:53:56;4.03;;;1.42;;
60502;SDS011;51448;51.660;5.824;2023-03-31T16:56:25;3.45;;;0.80;;
60502;SDS011;51448;51.660;5.824;2023-03-31T16:58:53;5.13;;;1.17;;
60502;SDS011;51448;51.660;5.824;2023-03-31T17:01:21;3.97;;;1.02;;
60502;SDS011;51448;51.660;5.824;2023-03-31T17:03:48;4.40;;;1.00;;
60502;SDS011;51448;51.660;5.824;2023-03-31T17:06:17;4.03;;;1.05;;
60502;SDS011;51448;51.660;5.824;2023-03-31T17:08:44;3.75;;;0.93;;
60502;SDS011;51448;51.660;5.824;2023-03-31T17:11:12;3.67;;;1.13;;
60502;SDS011;51448;51.660;5.824;2023-03-31T17:13:41;3.63;;;0.70;;
60502;SDS011;51448;51.660;5.824;2023-03-31T17:16:10;3.85;;;0.90;;
60502;SDS011;51448;51.660;5.824;2023-03-31T17:18:41;5.10;;;1.00;;
60502;SDS011;51448;51.660;5.824;2023-03-31T17:21:10;4.47;;;0.93;;
60502;SDS011;51448;51.660;5.824;2023-03-31T17:23:41;5.57;;;1.17;;
60502;SDS011;51448;51.660;5.824;2023-03-31T17:26:09;3.28;;;0.70;;
60502;SDS011;51448;51.660;5.824;2023-03-31T17:28:41;5.88;;;0.90;;
60502;SDS011;51448;51.660;5.824;2023-03-31T17:31:13;3.63;;;0.90;;
60502;SDS011;51448;51.660;5.824;2023-03-31T17:33:44;3.58;;;0.80;;
60502;SDS011;51448;51.660;5.824;2023-03-31T17:36:12;4.47;;;0.90;;
60502;SDS011;51448;51.660;5.824;2023-03-31T17:38:41;3.58;;;1.08;;
60502;SDS011;51448;51.660;5.824;2023-03-31T17:41:10;4.18;;;0.88;;
60502;SDS011;51448;51.660;5.824;2023-03-31T17:43:43;4.03;;;0.80;;
60502;SDS011;51448;51.660;5.824;2023-03-31T17:46:12;3.33;;;0.70;;
60502;SDS011;51448;51.660;5.824;2023-03-31T17:48:42;4.85;;;0.80;;
60502;SDS011;51448;51.660;5.824;2023-03-31T17:51:14;4.57;;;1.00;;
60502;SDS011;51448;51.660;5.824;2023-03-31T17:53:46;5.15;;;0.82;;
60502;SDS011;51448;51.660;5.824;2023-03-31T17:56:15;4.07;;;0.90;;
60502;SDS011;51448;51.660;5.824;2023-03-31T17:58:44;6.85;;;1.15;;
60502;SDS011;51448;51.660;5.824;2023-03-31T18:01:13;6.88;;;1.00;;
60502;SDS011;51448;51.660;5.824;2023-03-31T18:03:41;4.13;;;0.82;;
60502;SDS011;51448;51.660;5.824;2023-03-31T18:06:10;5.18;;;1.05;;
60502;SDS011;51448;51.660;5.824;2023-03-31T18:08:41;6.88;;;0.90;;
60502;SDS011;51448;51.660;5.824;2023-03-31T18:11:09;3.35;;;0.73;;